createdAt,value
2022-08-28T00:01:32.965Z,3.33
2022-08-28T00:04:00.906Z,2.47
2022-08-28T00:06:28.392Z,3.47
2022-08-28T00:08:55.841Z,2.88
2022-08-28T00:11:23.335Z,3.00
2022-08-28T00:13:50.790Z,3.58
2022-08-28T00:16:18.880Z,3.45
2022-08-28T00:18:47.184Z,3.95
2022-08-28T00:21:14.660Z,3.65
2022-08-28T00:23:43.478Z,4.68
2022-08-28T00:26:31.773Z,3.65
2022-08-28T00:28:58.815Z,3.67
2022-08-28T00:31:25.836Z,3.95
2022-08-28T00:33:52.853Z,3.90
2022-08-28T00:36:19.774Z,3.92
2022-08-28T00:38:46.575Z,4.03
2022-08-28T00:41:15.573Z,4.15
2022-08-28T00:43:45.223Z,3.97
2022-08-28T00:46:15.206Z,4.13
2022-08-28T00:48:42.338Z,3.63
2022-08-28T00:51:28.355Z,3.60
2022-08-28T00:53:58.978Z,3.70
2022-08-28T00:56:26.965Z,4.28
2022-08-28T00:58:57.606Z,3.92
2022-08-28T01:01:24.868Z,3.80
2022-08-28T01:03:51.817Z,4.35
2022-08-28T01:06:20.708Z,4.28
2022-08-28T01:08:50.615Z,3.47
2022-08-28T01:11:19.013Z,3.35
2022-08-28T01:13:48.487Z,5.30
2022-08-28T01:16:17.111Z,3.80
2022-08-28T01:18:44.432Z,3.50
2022-08-28T01:21:29.721Z,4.45
2022-08-28T01:24:16.740Z,4.47
2022-08-28T01:26:44.026Z,4.88
2022-08-28T01:29:11.913Z,3.72
2022-08-28T01:31:40.014Z,4.82
2022-08-28T01:34:08.200Z,4.90
2022-08-28T01:36:35.665Z,5.20
2022-08-28T01:39:28.656Z,5.20
2022-08-28T01:41:56.068Z,5.35
2022-08-28T01:44:25.881Z,5.30
2022-08-28T01:46:54.635Z,4.40
2022-08-28T01:49:22.091Z,4.80
2022-08-28T01:51:49.935Z,4.88
2022-08-28T01:54:19.911Z,4.53
2022-08-28T01:56:47.694Z,4.18
2022-08-28T01:59:15.390Z,4.43
2022-08-28T02:01:43.594Z,5.13
2022-08-28T02:04:11.720Z,4.72
2022-08-28T02:06:39.090Z,5.80
2022-08-28T02:09:07.563Z,4.70
2022-08-28T02:11:46.401Z,4.47
2022-08-28T02:14:14.115Z,4.35
2022-08-28T02:16:41.077Z,4.57
2022-08-28T02:19:07.922Z,5.43
2022-08-28T02:21:35.688Z,5.50
2022-08-28T02:24:03.286Z,5.18
2022-08-28T02:26:31.852Z,5.38
2022-08-28T02:28:59.314Z,5.50
2022-08-28T02:31:27.101Z,5.20
2022-08-28T02:33:53.980Z,5.55
2022-08-28T02:36:22.389Z,5.93
2022-08-28T02:38:55.374Z,5.35
2022-08-28T02:41:24.459Z,5.80
2022-08-28T02:43:51.325Z,6.38
2022-08-28T02:46:18.285Z,6.20
2022-08-28T02:48:45.693Z,5.63
2022-08-28T02:51:14.171Z,5.85
2022-08-28T02:53:41.605Z,5.90
2022-08-28T02:56:09.519Z,5.00
2022-08-28T02:58:36.908Z,5.97
2022-08-28T03:01:07.018Z,4.78
2022-08-28T03:03:34.709Z,6.25
2022-08-28T03:06:03.027Z,5.72
2022-08-28T03:08:32.057Z,5.40
2022-08-28T03:10:59.940Z,5.15
2022-08-28T03:13:27.486Z,6.10
2022-08-28T03:15:55.754Z,5.72
2022-08-28T03:18:24.506Z,6.10
2022-08-28T03:20:52.796Z,5.38
2022-08-28T03:23:28.722Z,6.00
2022-08-28T03:26:09.210Z,6.25
2022-08-28T03:28:39.492Z,6.28
2022-08-28T03:31:08.173Z,5.55
2022-08-28T03:33:35.728Z,6.30
2022-08-28T03:36:04.787Z,5.80
2022-08-28T03:38:32.206Z,6.07
2022-08-28T03:40:59.153Z,6.72
2022-08-28T03:43:27.406Z,5.65
2022-08-28T03:45:58.965Z,5.85
2022-08-28T03:48:34.056Z,5.43
2022-08-28T03:51:01.514Z,5.68
2022-08-28T03:53:29.709Z,5.90
2022-08-28T03:55:57.549Z,5.75
2022-08-28T03:58:25.104Z,5.22
2022-08-28T04:00:51.947Z,6.22
2022-08-28T04:03:19.583Z,5.95
2022-08-28T04:05:47.498Z,5.72
2022-08-28T04:08:16.591Z,6.15
2022-08-28T04:10:44.714Z,4.75
2022-08-28T04:13:13.300Z,5.80
2022-08-28T04:15:41.018Z,5.68
2022-08-28T04:18:09.296Z,6.03
2022-08-28T04:20:36.841Z,5.70
2022-08-28T04:23:04.422Z,4.80
2022-08-28T04:25:31.747Z,5.63
2022-08-28T04:27:59.023Z,5.65
2022-08-28T04:30:25.942Z,5.07
2022-08-28T04:32:53.135Z,5.70
2022-08-28T04:35:20.060Z,6.53
2022-08-28T04:37:47.053Z,6.55
2022-08-28T04:40:16.056Z,5.03
2022-08-28T04:42:45.071Z,5.45
2022-08-28T04:45:12.153Z,5.60
2022-08-28T04:47:39.155Z,5.28
2022-08-28T04:50:07.765Z,5.57
2022-08-28T04:52:34.766Z,5.00
2022-08-28T04:55:01.923Z,5.90
2022-08-28T04:57:31.202Z,5.70
2022-08-28T05:00:00.206Z,5.30
2022-08-28T05:02:27.165Z,6.30
2022-08-28T05:04:54.339Z,5.80
2022-08-28T05:07:21.317Z,6.25
2022-08-28T05:09:48.530Z,4.95
2022-08-28T05:12:17.440Z,5.78
2022-08-28T05:14:44.830Z,5.70
2022-08-28T05:17:14.191Z,6.30
2022-08-28T05:19:41.994Z,5.25
2022-08-28T05:22:11.873Z,6.00
2022-08-28T05:24:40.239Z,5.15
2022-08-28T05:27:08.750Z,6.00
2022-08-28T05:29:35.884Z,5.22
2022-08-28T05:32:03.369Z,4.95
2022-08-28T05:34:30.392Z,5.18
2022-08-28T05:36:57.396Z,5.35
2022-08-28T05:39:24.269Z,5.35
2022-08-28T05:41:51.162Z,6.43
2022-08-28T05:44:18.282Z,6.47
2022-08-28T05:46:48.103Z,5.15
2022-08-28T05:49:17.925Z,5.97
2022-08-28T05:51:45.396Z,5.65
2022-08-28T05:54:12.788Z,5.93
2022-08-28T05:56:40.683Z,4.90
2022-08-28T05:59:08.735Z,5.00
2022-08-28T06:01:41.471Z,5.82
2022-08-28T06:04:14.672Z,5.47
2022-08-28T06:06:42.413Z,5.55
2022-08-28T06:09:19.463Z,6.35
2022-08-28T06:11:47.420Z,6.22
2022-08-28T06:14:18.233Z,5.63
2022-08-28T06:16:50.228Z,5.97
2022-08-28T06:19:17.918Z,5.20
2022-08-28T06:21:47.085Z,5.32
2022-08-28T06:24:14.527Z,5.50
2022-08-28T06:26:41.697Z,4.95
2022-08-28T06:29:11.170Z,5.43
2022-08-28T06:31:38.578Z,4.72
2022-08-28T06:34:06.478Z,5.25
2022-08-28T06:36:37.074Z,5.20
2022-08-28T06:39:05.186Z,5.10
2022-08-28T06:41:32.941Z,4.72
2022-08-28T06:44:00.001Z,4.60
2022-08-28T06:46:30.347Z,4.72
2022-08-28T06:48:57.177Z,4.55
2022-08-28T06:51:24.996Z,4.47
2022-08-28T06:53:52.359Z,5.07
2022-08-28T06:56:26.102Z,4.28
2022-08-28T06:58:55.704Z,5.28
2022-08-28T07:01:32.658Z,4.78
2022-08-28T07:04:04.179Z,3.58
2022-08-28T07:06:34.348Z,4.22
2022-08-28T07:09:02.158Z,3.95
2022-08-28T07:11:31.670Z,3.80
2022-08-28T07:13:59.357Z,4.63
2022-08-28T07:16:29.645Z,4.65
2022-08-28T07:18:57.308Z,3.78
2022-08-28T07:21:24.165Z,4.15
2022-08-28T07:23:51.440Z,4.93
2022-08-28T07:26:22.999Z,4.30
2022-08-28T07:28:51.765Z,3.30
2022-08-28T07:31:21.767Z,4.13
2022-08-28T07:33:50.809Z,4.05
2022-08-28T07:36:29.452Z,4.32
2022-08-28T07:38:58.926Z,3.65
2022-08-28T07:41:28.365Z,4.75
2022-08-28T07:44:13.993Z,4.32
2022-08-28T07:46:41.698Z,4.68
2022-08-28T07:49:09.673Z,4.70
2022-08-28T07:51:37.043Z,4.32
2022-08-28T07:54:04.788Z,4.15
2022-08-28T07:56:32.388Z,3.55
2022-08-28T07:59:00.839Z,4.50
2022-08-28T08:01:30.643Z,5.13
2022-08-28T08:04:01.800Z,4.60
2022-08-28T08:06:33.863Z,5.50
2022-08-28T08:09:02.297Z,3.40
2022-08-28T08:11:32.207Z,4.00
2022-08-28T08:14:05.703Z,3.20
2022-08-28T08:16:38.847Z,4.03
2022-08-28T08:19:06.176Z,3.67
2022-08-28T08:21:33.151Z,3.35
2022-08-28T08:24:00.116Z,4.15
2022-08-28T08:26:31.041Z,3.38
2022-08-28T08:28:58.170Z,4.43
2022-08-28T08:31:27.807Z,3.63
2022-08-28T08:34:02.064Z,3.30
2022-08-28T08:36:30.004Z,3.88
2022-08-28T08:39:00.046Z,3.83
2022-08-28T08:41:51.320Z,3.90
2022-08-28T08:44:33.691Z,3.80
2022-08-28T08:47:19.892Z,3.80
2022-08-28T08:50:08.237Z,3.67
2022-08-28T08:52:46.471Z,3.20
2022-08-28T08:55:19.093Z,3.40
2022-08-28T08:57:49.459Z,3.97
2022-08-28T09:00:17.052Z,3.90
2022-08-28T09:02:53.775Z,3.42
2022-08-28T09:05:23.803Z,5.07
2022-08-28T09:07:56.670Z,3.88
2022-08-28T09:10:26.442Z,3.45
2022-08-28T09:13:01.053Z,3.42
2022-08-28T09:15:34.684Z,4.07
2022-08-28T09:18:15.528Z,3.60
2022-08-28T09:20:43.009Z,3.42
2022-08-28T09:23:12.545Z,4.00
2022-08-28T09:26:01.710Z,3.42
2022-08-28T09:28:36.195Z,3.47
2022-08-28T09:31:08.937Z,4.00
2022-08-28T09:33:48.170Z,3.63
2022-08-28T09:36:29.817Z,3.90
2022-08-28T09:39:27.391Z,3.25
2022-08-28T09:42:35.465Z,2.53
2022-08-28T09:45:14.336Z,3.03
2022-08-28T09:47:48.878Z,3.60
2022-08-28T09:50:32.056Z,3.08
2022-08-28T09:53:09.732Z,2.90
2022-08-28T09:55:40.671Z,3.35
2022-08-28T09:58:08.728Z,2.90
2022-08-28T10:00:38.228Z,2.90
2022-08-28T10:03:15.852Z,3.30
2022-08-28T10:05:54.904Z,3.35
2022-08-28T10:08:55.042Z,3.13
2022-08-28T10:12:00.124Z,3.10
2022-08-28T10:14:45.904Z,3.25
2022-08-28T10:17:19.017Z,2.78
2022-08-28T10:20:33.248Z,3.00
2022-08-28T10:23:24.755Z,3.03
2022-08-28T10:26:11.606Z,3.08
2022-08-28T10:29:13.880Z,3.42
2022-08-28T10:31:43.648Z,3.67
2022-08-28T10:34:25.780Z,3.83
2022-08-28T10:37:22.548Z,3.33
2022-08-28T10:39:57.771Z,3.33
2022-08-28T10:42:36.489Z,3.28
2022-08-28T10:45:15.586Z,2.90
2022-08-28T10:47:47.390Z,2.80
2022-08-28T10:50:30.095Z,2.85
2022-08-28T10:53:39.063Z,2.50
2022-08-28T10:56:39.725Z,3.00
2022-08-28T10:59:07.793Z,3.22
2022-08-28T11:01:37.316Z,3.38
2022-08-28T11:04:09.003Z,3.00
2022-08-28T11:06:46.397Z,3.35
2022-08-28T11:09:28.687Z,3.35
2022-08-28T11:12:02.607Z,3.60
2022-08-28T11:14:47.978Z,3.47
2022-08-28T11:17:25.347Z,3.20
2022-08-28T11:20:20.716Z,3.50
2022-08-28T11:22:53.034Z,3.05
2022-08-28T11:25:32.470Z,4.05
2022-08-28T11:28:37.839Z,3.28
2022-08-28T11:31:04.818Z,3.78
2022-08-28T11:33:37.493Z,3.30
2022-08-28T11:36:18.126Z,4.40
2022-08-28T11:38:45.117Z,2.40
2022-08-28T11:41:15.146Z,3.40
2022-08-28T11:43:43.871Z,3.05
2022-08-28T11:46:27.617Z,2.65
2022-08-28T11:48:57.258Z,2.90
2022-08-28T11:51:48.964Z,2.90
2022-08-28T11:54:22.740Z,2.72
2022-08-28T11:57:04.020Z,2.50
2022-08-28T11:59:40.008Z,3.03
2022-08-28T12:02:40.664Z,2.80
2022-08-28T12:05:11.368Z,3.38
2022-08-28T12:07:40.848Z,2.42
2022-08-28T12:10:22.670Z,3.10
2022-08-28T12:13:05.199Z,3.35
2022-08-28T12:15:32.357Z,2.67
2022-08-28T12:18:01.177Z,3.47
2022-08-28T12:20:55.011Z,2.53
2022-08-28T12:23:34.749Z,3.03
2022-08-28T12:26:27.382Z,2.65
2022-08-28T12:29:05.773Z,2.27
2022-08-28T12:32:11.411Z,2.13
2022-08-28T12:34:50.207Z,2.85
2022-08-28T12:37:29.494Z,2.53
2022-08-28T12:40:08.920Z,2.47
2022-08-28T12:42:39.477Z,2.17
2022-08-28T12:45:09.104Z,2.40
2022-08-28T12:47:37.387Z,3.20
2022-08-28T12:50:27.089Z,3.10
2022-08-28T12:52:56.998Z,2.88
2022-08-28T12:55:25.081Z,2.17
2022-08-28T12:57:52.777Z,2.78
2022-08-28T13:00:30.226Z,2.65
2022-08-28T13:02:57.344Z,3.13
2022-08-28T13:05:31.829Z,2.95
2022-08-28T13:08:01.969Z,2.10
2022-08-28T13:10:30.969Z,2.38
2022-08-28T13:13:05.667Z,3.38
2022-08-28T13:16:02.227Z,2.20
2022-08-28T13:18:52.225Z,2.65
2022-08-28T13:21:33.926Z,2.70
2022-08-28T13:24:35.571Z,2.85
2022-08-28T13:27:07.183Z,2.72
2022-08-28T13:29:35.235Z,2.83
2022-08-28T13:32:03.681Z,3.13
2022-08-28T13:34:34.028Z,2.60
2022-08-28T13:37:14.963Z,1.98
2022-08-28T13:39:47.223Z,2.17
2022-08-28T13:42:16.615Z,3.13
2022-08-28T13:44:56.881Z,2.08
2022-08-28T13:47:23.815Z,2.20
2022-08-28T13:49:51.117Z,2.30
2022-08-28T13:52:18.151Z,2.45
2022-08-28T13:54:45.729Z,2.92
2022-08-28T13:57:13.783Z,2.60
2022-08-28T13:59:40.926Z,2.90
2022-08-28T14:02:30.153Z,2.33
2022-08-28T14:04:57.371Z,2.00
2022-08-28T14:07:24.752Z,2.45
2022-08-28T14:09:56.129Z,2.33
2022-08-28T14:12:24.943Z,2.08
2022-08-28T14:15:01.113Z,2.70
2022-08-28T14:17:28.335Z,2.50
2022-08-28T14:19:55.461Z,2.65
2022-08-28T14:22:22.508Z,2.65
2022-08-28T14:24:49.412Z,2.90
2022-08-28T14:27:16.465Z,2.00
2022-08-28T14:29:43.591Z,2.20
2022-08-28T14:32:10.698Z,2.60
2022-08-28T14:34:38.336Z,2.10
2022-08-28T14:37:06.355Z,2.00
2022-08-28T14:39:33.667Z,2.35
2022-08-28T14:42:01.865Z,2.08
2022-08-28T14:44:28.844Z,2.40
2022-08-28T14:46:57.145Z,1.70
2022-08-28T14:49:25.183Z,2.30
2022-08-28T14:51:53.956Z,2.30
2022-08-28T14:54:23.001Z,2.25
2022-08-28T14:56:53.724Z,2.20
2022-08-28T14:59:26.181Z,2.35
2022-08-28T15:01:55.359Z,2.05
2022-08-28T15:04:24.318Z,2.20
2022-08-28T15:06:57.007Z,2.50
2022-08-28T15:09:25.270Z,1.95
2022-08-28T15:11:52.554Z,2.00
2022-08-28T15:14:19.789Z,1.80
2022-08-28T15:16:48.421Z,1.83
2022-08-28T15:19:18.115Z,2.03
2022-08-28T15:21:51.379Z,1.70
2022-08-28T15:24:23.941Z,2.47
2022-08-28T15:26:50.977Z,1.92
2022-08-28T15:29:18.305Z,2.55
2022-08-28T15:31:49.085Z,2.47
2022-08-28T15:34:19.786Z,2.05
2022-08-28T15:36:54.905Z,2.97
2022-08-28T15:39:46.403Z,2.03
2022-08-28T15:42:14.060Z,2.20
2022-08-28T15:44:41.252Z,2.10
2022-08-28T15:47:08.595Z,2.10
2022-08-28T15:49:41.524Z,1.80
2022-08-28T15:52:14.098Z,2.15
2022-08-28T15:54:41.619Z,2.83
2022-08-28T15:57:08.628Z,1.73
2022-08-28T15:59:48.447Z,2.03
2022-08-28T16:02:16.449Z,2.67
2022-08-28T16:04:43.455Z,1.70
2022-08-28T16:07:11.233Z,2.22
2022-08-28T16:09:38.817Z,1.90
2022-08-28T16:12:05.965Z,2.47
2022-08-28T16:14:34.076Z,2.10
2022-08-28T16:17:05.759Z,2.20
2022-08-28T16:19:41.763Z,1.83
2022-08-28T16:22:10.046Z,1.73
2022-08-28T16:24:36.987Z,2.17
2022-08-28T16:27:04.503Z,2.65
2022-08-28T16:29:33.417Z,2.05
2022-08-28T16:32:00.373Z,2.13
2022-08-28T16:34:31.457Z,2.22
2022-08-28T16:36:59.489Z,2.35
2022-08-28T16:39:26.735Z,2.20
2022-08-28T16:41:53.670Z,1.80
2022-08-28T16:44:22.133Z,2.03
2022-08-28T16:46:49.405Z,2.00
2022-08-28T16:49:16.365Z,2.30
2022-08-28T16:51:43.296Z,2.10
2022-08-28T16:54:10.224Z,2.33
2022-08-28T16:56:37.524Z,1.65
2022-08-28T16:59:10.113Z,1.90
2022-08-28T17:01:38.148Z,2.05
2022-08-28T17:04:07.960Z,2.72
2022-08-28T17:06:35.037Z,2.72
2022-08-28T17:09:01.913Z,2.10
2022-08-28T17:11:29.574Z,2.15
2022-08-28T17:13:56.917Z,2.25
2022-08-28T17:16:26.080Z,1.75
2022-08-28T17:18:53.110Z,2.05
2022-08-28T17:21:40.089Z,1.70
2022-08-28T17:24:08.576Z,2.20
2022-08-28T17:26:36.020Z,1.95
2022-08-28T17:29:03.504Z,2.58
2022-08-28T17:31:30.653Z,2.17
2022-08-28T17:33:57.811Z,2.08
2022-08-28T17:36:33.059Z,2.10
2022-08-28T17:39:05.631Z,2.22
2022-08-28T17:41:34.432Z,2.30
2022-08-28T17:44:02.184Z,1.77
2022-08-28T17:46:35.388Z,1.67
2022-08-28T17:49:05.616Z,2.40
2022-08-28T17:51:42.892Z,2.20
2022-08-28T17:54:15.371Z,2.40
2022-08-28T17:56:42.801Z,1.75
2022-08-28T17:59:11.131Z,1.92
2022-08-28T18:01:38.596Z,2.28
2022-08-28T18:04:05.823Z,2.17
2022-08-28T18:06:32.794Z,2.13
2022-08-28T18:09:00.561Z,2.58
2022-08-28T18:11:28.606Z,2.90
2022-08-28T18:13:55.692Z,2.03
2022-08-28T18:16:25.397Z,2.13
2022-08-28T18:18:54.740Z,2.47
2022-08-28T18:21:22.258Z,2.75
2022-08-28T18:23:49.163Z,2.13
2022-08-28T18:26:17.589Z,2.28
2022-08-28T18:28:44.611Z,2.13
2022-08-28T18:31:11.530Z,2.47
2022-08-28T18:33:38.670Z,1.65
2022-08-28T18:36:10.868Z,2.03
2022-08-28T18:38:37.943Z,2.67
2022-08-28T18:41:06.822Z,2.22
2022-08-28T18:43:33.846Z,2.05
2022-08-28T18:46:02.067Z,2.08
2022-08-28T18:48:29.386Z,2.50
2022-08-28T18:50:56.247Z,2.65
2022-08-28T18:53:24.050Z,2.10
2022-08-28T18:55:52.781Z,1.95
2022-08-28T18:58:21.901Z,2.75
2022-08-28T19:00:49.530Z,2.50
2022-08-28T19:03:16.421Z,2.67
2022-08-28T19:05:43.354Z,2.63
2022-08-28T19:08:10.580Z,2.00
2022-08-28T19:10:38.116Z,2.30
2022-08-28T19:13:05.239Z,2.03
2022-08-28T19:15:33.486Z,1.95
2022-08-28T19:18:00.765Z,1.98
2022-08-28T19:20:29.126Z,2.53
2022-08-28T19:22:59.734Z,1.92
2022-08-28T19:25:31.304Z,2.67
2022-08-28T19:28:10.589Z,2.42
2022-08-28T19:30:43.524Z,2.17
2022-08-28T19:35:42.248Z,2.80
2022-08-28T19:38:09.283Z,2.28
2022-08-28T19:40:38.909Z,2.53
2022-08-28T19:43:06.256Z,2.40
2022-08-28T19:45:39.494Z,2.40
2022-08-28T19:48:06.745Z,2.75
2022-08-28T19:50:33.975Z,2.53
2022-08-28T19:53:01.020Z,2.20
2022-08-28T19:55:28.834Z,2.25
2022-08-28T19:58:00.812Z,2.67
2022-08-28T20:00:29.505Z,2.53
2022-08-28T20:02:57.887Z,2.40
2022-08-28T20:08:57.813Z,2.40
2022-08-28T20:11:46.746Z,2.85
2022-08-28T20:14:22.659Z,2.85
2022-08-28T20:17:02.833Z,2.40
2022-08-28T20:19:29.835Z,2.72
2022-08-28T20:22:00.026Z,2.75
2022-08-28T20:24:27.235Z,2.92
2022-08-28T20:26:54.510Z,2.28
2022-08-28T20:29:23.010Z,2.63
2022-08-28T20:31:50.397Z,3.03
2022-08-28T20:34:19.158Z,2.83
2022-08-28T20:36:53.768Z,2.47
2022-08-28T20:39:21.808Z,2.30
2022-08-28T20:41:49.614Z,3.10
2022-08-28T20:44:18.694Z,2.25
2022-08-28T20:46:51.401Z,2.60
2022-08-28T20:49:22.221Z,3.08
2022-08-28T20:52:00.950Z,2.80
2022-08-28T20:54:37.746Z,2.50
2022-08-28T20:57:08.198Z,2.58
2022-08-28T20:59:39.701Z,2.88
2022-08-28T21:02:10.501Z,3.40
2022-08-28T21:04:39.585Z,1.90
2022-08-28T21:07:08.975Z,3.20
2022-08-28T21:10:03.809Z,3.38
2022-08-28T21:12:36.913Z,2.78
2022-08-28T21:15:06.070Z,3.08
2022-08-28T21:17:33.227Z,2.80
2022-08-28T21:20:10.253Z,3.00
2022-08-28T21:22:55.972Z,2.72
2022-08-28T21:25:24.774Z,2.83
2022-08-28T21:27:52.550Z,3.25
2022-08-28T21:30:21.551Z,2.80
2022-08-28T21:32:52.954Z,2.63
2022-08-28T21:35:20.141Z,2.90
2022-08-28T21:37:49.400Z,2.70
2022-08-28T21:40:17.159Z,3.42
2022-08-28T21:42:44.263Z,2.85
2022-08-28T21:45:18.773Z,2.60
2022-08-28T21:47:46.104Z,2.58
2022-08-28T21:50:13.209Z,2.78
2022-08-28T21:52:40.415Z,3.20
2022-08-28T21:55:11.549Z,3.00
2022-08-28T21:57:38.998Z,2.92
2022-08-28T22:00:13.478Z,2.90
2022-08-28T22:02:40.562Z,2.95
2022-08-28T22:05:08.860Z,2.80
2022-08-28T22:07:36.229Z,3.88
2022-08-28T22:10:03.879Z,2.47
2022-08-28T22:12:33.209Z,2.92
2022-08-28T22:15:00.513Z,3.15
2022-08-28T22:17:27.662Z,3.78
2022-08-28T22:19:55.271Z,2.58
2022-08-28T22:22:41.241Z,2.88
2022-08-28T22:25:09.481Z,3.00
2022-08-28T22:27:36.674Z,2.80
2022-08-28T22:30:04.963Z,2.92
2022-08-28T22:32:31.987Z,2.58
2022-08-28T22:34:58.894Z,3.10
2022-08-28T22:37:25.873Z,2.75
2022-08-28T22:39:52.932Z,3.22
2022-08-28T22:42:20.229Z,2.65
2022-08-28T22:44:47.199Z,2.80
2022-08-28T22:47:14.211Z,2.83
2022-08-28T22:49:41.130Z,2.78
2022-08-28T22:52:10.759Z,3.03
2022-08-28T22:54:37.851Z,2.17
2022-08-28T22:57:05.946Z,3.00
2022-08-28T22:59:34.400Z,2.95
2022-08-28T23:02:01.383Z,2.80
2022-08-28T23:04:28.377Z,2.90
2022-08-28T23:06:55.472Z,3.22
2022-08-28T23:09:22.524Z,2.83
2022-08-28T23:11:49.980Z,3.28
2022-08-28T23:14:17.246Z,2.65
2022-08-28T23:16:45.040Z,3.22
2022-08-28T23:19:13.064Z,3.15
2022-08-28T23:21:44.093Z,2.50
2022-08-28T23:24:16.250Z,2.60
2022-08-28T23:26:44.380Z,2.95
2022-08-28T23:29:11.883Z,3.13
2022-08-28T23:31:39.606Z,2.95
2022-08-28T23:34:07.077Z,3.42
2022-08-28T23:36:35.879Z,3.10
2022-08-28T23:39:04.717Z,3.38
2022-08-28T23:41:32.786Z,3.47
2022-08-28T23:43:59.812Z,3.53
2022-08-28T23:46:26.749Z,3.67
2022-08-28T23:48:53.592Z,3.45
2022-08-28T23:51:22.108Z,3.20
2022-08-28T23:53:49.642Z,3.13
2022-08-28T23:56:18.524Z,3.50
2022-08-28T23:58:45.642Z,3.35
